Impacts TAF Board INFO
FOR SITUATIONAL AWARENESS. NOT TO BE USED FOR FLIGHT PLANNING PURPOSES.
IDs:

KDTW - Detroit Metro/Wayne, MI, US

Issued at 0907 UTC 23 May 2018
Updated at 1113 UTC 23 May 2018
Potential Impact None Slight Moderate High
Time1053Z 23/12Z 23/13Z 23/14Z 23/15Z 23/16Z 23/17Z 23/18Z 23/19Z 23/20Z 23/21Z 23/22Z 23/23Z 24/00Z>>
Type OBS PRVL PRVL PRVL PRVL PRVL PRVL PRVL PRVL PRVL PRVL PRVL PRVL PRVL
VIS 4 3 >6 >6 >6 >6 >6 >6 >6 >6 >6 >6 >6 >6
CIG -- -- -- -- -- -- -- -- -- -- -- -- -- --
Cover FEW SKC SKC SKC SKC SKC SKC SKC SKC SKC SKC SKC SKC SKC
FltCat MVFR MVFR VFR VFR VFR VFR VFR VFR VFR VFR VFR VFR VFR VFR
WX BR BR -- -- -- -- -- -- -- -- -- -- -- --
WDir 310 VRB 340 340 340 340 340 340 340 340 340 40 40 40
WSpd 4 3 5 5 5 5 5 5 5 5 5 6 6 6
WGst -- -- -- -- -- -- -- -- -- -- -- -- -- --

Raw TAF
KDTW 230907Z 2309/2412 VRB03KT 3SM BR SKC
  FM231300 34005KT P6SM SKC
  FM232200 04006KT P6SM SKC


Raw METAR
KDTW 231053Z 31004KT 4SM BR FEW220 13/11 A3013 RMK AO2 SLP201 T01330111
KDTW 230953Z 29003KT 4SM BR CLR 12/11 A3011 RMK AO2 SLP196 T01220106
KDTW 230853Z 25003KT 4SM BR CLR 12/11 A3009 RMK AO2 SLP188 T01220106 53008

METAR Board
Radar Display
Forecast Discussion

FOR SITUATIONAL AWARENESS. NOT TO BE USED FOR FLIGHT PLANNING PURPOSES.